Casper, WY (82601)

6:50 PM MDT on May 22, 2017 (GMT -0600)
Grant Avenue | | Change Station

Elev 5164 ft 42.84 °N, 106.32 °W | Updated 4 minutes ago

Rain
Rain
48.9 °F
Feels Like 49 °F
N
1.9
Wind Variable Wind from SW
Gusts 6.2 mph

Today
High -- | Low -- °F
--% Chance of Precip.
Yesterday
High -- | Low -- °F
Precip. -- in
Pressure 30.19 in
Visibility 10.0 miles
Clouds Few 3100 ft
Scattered Clouds 4200 ft
Overcast 5000 ft
Windchill 49 °F
Dew Point 41 °F
Humidity 73%
Rainfall 0.07 in
Snow Depth Not available.
5:35 AM 8:28 PM
Waning Crescent, 11% visible
METAR KCPR 222353Z 29008KT 10SM FEW031 SCT042 OVC050 08/05 A3022 RMK AO2 RAB07E52 SLP223 P0005 60015 T00780050 10094 20033 56005
Pressure 30.19 in
Visibility 10.0 miles
Clouds Few 3100 ft
Scattered Clouds 4200 ft
Overcast 5000 ft
Windchill 49 °F
Dew Point 41 °F
Humidity 73%
Rainfall 0.07 in
Snow Depth Not available.
5:35 AM 8:28 PM
Waning Crescent, 11% visible
METAR KCPR 222353Z 29008KT 10SM FEW031 SCT042 OVC050 08/05 A3022 RMK AO2 RAB07E52 SLP223 P0005 60015 T00780050 10094 20033 56005

Get Severe Weather Alerts

Thanks for signing up!

Be on the lookout for a verification email in your inbox.

You'll start receiving the daily forecast at 6 AM.

×

10-Day Weather Forecast

Almanac

Astronomy

May. 22, 2017 Rise Set
Actual Time
Civil Twilight
Nautical Twilight
Astronomical Twilight
Moon
Length of Visible Light
Length of Day
Tomorrow will be .
, % of the Moon is Illuminated

Today's Extremes

State Highs State Lows

Community

WunderPhotos

Category 6

Welcome to Category 6. This is the collective home for Weather Underground's featured writeups by Dr. Jeff Masters (right), Bob Henson (left), Chris Burt, and other regular contributors.

Nearby

Air Quality

  Air Quality AQ Index Pollutant
Not available.

Snow Depth

Station Depth Elevation

Earthquake Activity

City Distance Mag. Time & Date
Minimum magnitude displayed is 2.5.

Coastal Water Temperatures

Place Temperature

Stations

Nearby Weather Stations

Station Location Temp. Windchill Dew Point Humidity Wind Precip. Elev Updated Type
                   

Watches & Warnings

There are currently no watches in effect.